Home PIREPS Pireps

Flight BEL12218TR

  • Submitted By: AndrĂ© Vincent
  • Departure Airport: Franz Josef Strauss International Airport (EDDM)
  • Arrival Airport: Montijo Airport (LPMT)
  • Aircraft: YOUR CHOICE (YC)
  • Flight Time: 03.10
  • Date Submitted: 21/11/2017
  • Status: Accepted
Flight Details
Gross Revenue:
(25 load / € 0.00 per unit
€ 0.00
Fuel Cost:
(15405 fuel used @ 5.1 / unit)
€ 78,565.50

Additional Log Information:

View Log

Aircraft Used in flight is Boeing 737-800 sabena paint
06:34 Brakes are On
06:35 Brakes are Released
06:43 You Took off @ 207 Knots and Flaps at Position 2
Departure Weather
EDDM 210520Z 25020KT 9999 BKN015 06/03 Q1016 TEMPO BKN012rn
06:43 Landing Gear Up @ 209 Knots and 1510 Feet
09:34 You exceeded maximum bank angle
09:35 Landing Gear Down @ 142 Knots and 3730 Feet
09:40 You Landed @ 110 Knots and with -350 Vertical Speed
Arrival Weather
LPMT 210800Z 02005KT 9999 FEW008 06/05 Q1021rn
09:44 Brakes are On
09:45 Brussels Bel-Track1.0.1.2

Route Map

Corporate About Us Our Team Vacancies Information Fleet Route Network Rules and Regulations Operations Flight Schedules Event Center Tours Partners IVAO Vatsim Acars dev FSCB

fb Users Online Belgium Martin Witters, Belgium Bennie Peeters, Belgium Jos Viville,
4 Pilot(s) and 149 Guest(s) Online
CMS by phpVMS - Design by Crazycreatives.com - Copyright © 2018 - Brussels Airlines Virtual